Solea — DBFH — position and weather

sailwx.info

Track history (hours):
 
Tides and Currents Weather Stations Pressure Air Temp Water Temp Dewpoint Dewpoint Depression Visibility Wind Speed Wind Dir Waves Ship Positions

Solea

Last reported at 2018-Jan-21 23:30 UTC. Time now 2018-Jan-22 00:14 UTC.
Position N 54°21' E 011°11'.

Length 42.7 m; beam 9.8 m; draft 4.8 m.

Type: Fishing. MMSI: 211417588.

Date/timePositionNaut miles runAvg speedWind from/ knotsBaromVisibWave heightAir tempDewpointWater temp
2018-Jan-21 23:30N 54°21' E 011°11'3 5.7
2018-Jan-21 23:00N 54°18' E 011°12'0 0.0 200 / 21015.4 -0.2-0.2 3.3
2018-Jan-21 22:00N 54°18' E 011°12'0 0.0 030 / 21015.9 -0.7-0.7 3.4
2018-Jan-21 21:00N 54°18' E 011°12'3 7.3 1016.2 -0.9-1.0 3.3
2018-Jan-21 20:37N 54°21' E 011°11'0 1.0
2018-Jan-21 20:15N 54°20' E 011°11'2 9.7
2018-Jan-21 20:00N 54°18' E 011°12'2163.6 200 / 21016.6 -0.3-0.4 3.3
2018-Jan-21 19:59N 54°20' E 011°11'0 1.0
2018-Jan-21 19:30N 54°20' E 011°11'2 3.7
2018-Jan-21 19:00N 54°18' E 011°12'0 0.0 210 / 21016.5 0.1 0.1 3.5
2018-Jan-21 18:00N 54°18' E 011°12'0 0.0 210 / 61016.4 -0.1-0.2 3.5
2018-Jan-21 17:00N 54°18' E 011°12'1 1.2 220 / 61016.5 -0.2-0.2 3.4
2018-Jan-21 16:18N 54°19' E 011°12'1 2.6
2018-Jan-21 16:00N 54°18' E 011°12'1 1.4 210
2018-Jan-21 15:11N 54°19' E 011°13'315.1
2018-Jan-21 15:00N 54°18' E 011°18'1 8.2 220 / 6
2018-Jan-21 14:50N 54°19' E 011°16'1 1.6
2018-Jan-21 14:00N 54°18' E 011°18'9 9.2
2018-Jan-21 13:00N 54°12' E 011°30'9 4.6
2018-Jan-21 11:00N 54°18' E 011°18'0 0.0 090 / 41013.9 3.0 1.1 3.5
2018-Jan-21 10:00N 54°18' E 011°18'7 6.9 080 / 61013.1 2.9 0.9 3.5
2018-Jan-21 09:00N 54°12' E 011°24'0 0.0 070 / 61012.3 3.9 0.5 3.7
2018-Jan-21 08:00N 54°12' E 011°24'6 6.0 060 / 41011.2 3.4 0.9 3.7
2018-Jan-21 07:00N 54°18' E 011°24'4 3.5 060 / 41010.0 2.8-0.3 3.8
2018-Jan-21 06:00N 54°18' E 011°18'4 3.5 1009.1 2.9 0.8 3.6
2018-Jan-21 05:00N 54°18' E 011°12'0 0.0 150 / 21008.4 2.4 0.9 3.3
2018-Jan-21 04:00N 54°18' E 011°12'0 0.0 160 / 41007.5 3.2 1.3 3.3
2018-Jan-21 03:00N 54°18' E 011°12'2 6.9 170 / 41006.6 3.1 1.2 3.4
2018-Jan-21 02:40N 54°20' E 011°09'0 0.5
2018-Jan-21 02:27N 54°19' E 011°09'2 4.8
2018-Jan-21 02:00N 54°18' E 011°12'4 3.5 150 / 61005.9 3.1 1.3 3.5
2018-Jan-21 01:00N 54°18' E 011°06'0 0.0 140 / 61004.9 2.1 0.9 3.3
2018-Jan-21 00:00N 54°18' E 011°06'0 0.0 160 / 81004.3 2.9 1.0 3.4
2018-Jan-20 23:00N 54°18' E 011°06'233.5 160 / 101003.7 3.2 1.1 3.5
2018-Jan-20 22:55N 54°20' E 011°09'3 3.1
2018-Jan-20 22:00N 54°18' E 011°12'0 0.0 150 / 121003.4 3.2 0.8 3.3
2018-Jan-20 21:00N 54°18' E 011°12'4 3.5 150 / 141003.0 2.5 0.1 3.4
2018-Jan-20 20:00N 54°18' E 011°06'0 0.0 150 / 101002.8 2.6 0.3 3.4
2018-Jan-20 19:00N 54°18' E 011°06'0 0.0 150 / 121002.5 3.4 0.6 3.5
2018-Jan-20 18:00N 54°18' E 011°06'2 2.1 150 / 121002.4 3.0 0.4 3.5
2018-Jan-20 17:08N 54°19' E 011°09'0 0.6
2018-Jan-20 17:00N 54°19' E 011°09'2120.2
2018-Jan-20 17:00N 54°18' E 011°06'4 3.5 180 / 101002.4 2.8 0.1 3.5
2018-Jan-20 16:00N 54°18' E 011°12'1 5.2 190 / 81002.7 2.2-0.3 3.5
2018-Jan-20 15:46N 54°18' E 011°10'2 5.5
2018-Jan-20 15:28N 54°18' E 011°13'3 6.3
2018-Jan-20 15:00N 54°18' E 011°18'0 0.0 210 / 81002.8 2.3-0.2 3.9
2018-Jan-20 14:00N 54°18' E 011°18'0 0.0 220 / 141002.7 2.3 0.1 3.7
2018-Jan-20 13:00N 54°18' E 011°18'0 0.0 220 / 141003.0 2.1 0.1 3.5
2018-Jan-20 12:00N 54°18' E 011°18'6 6.0 220 / 141003.7 2.1 0.1 3.9
2018-Jan-20 11:00N 54°12' E 011°18'7 6.9 200 / 141004.4 1.9 0.8 4.0
2018-Jan-20 10:00N 54°18' E 011°24'0 0.0 220 / 161004.7 2.0 0.1 3.9
2018-Jan-20 09:00N 54°18' E 011°24'0 0.0 220 / 171004.4 2.1-0.0 4.0
2018-Jan-20 08:00N 54°18' E 011°24'0 0.0 220 / 171004.4 2.7 0.6 4.0
2018-Jan-20 07:00N 54°18' E 011°24'7 6.9 230 / 171004.3 2.1 0.7 4.0
2018-Jan-20 06:00N 54°12' E 011°18'4 3.5 230 / 171004.4 2.2 0.6 3.9
2018-Jan-20 05:00N 54°12' E 011°12'4 3.5 230 / 171004.5 2.7 0.9 3.5
2018-Jan-20 04:00N 54°12' E 011°06'0 0.0 240 / 141004.8 2.7 1.0 3.4
2018-Jan-20 03:00N 54°12' E 011°06'4 3.5 230 / 121005.2 2.2 0.8 3.4
2018-Jan-20 02:00N 54°12' E 011°12'0 0.0 240 / 121005.4 2.8 0.9 3.5
2018-Jan-20 01:00N 54°12' E 011°12'4 3.5 230 / 141005.3 2.9 1.0 3.6
2018-Jan-20 00:00N 54°12' E 011°06'0 0.0 230 / 141005.1 2.9 1.4 3.5
2018-Jan-19 23:00N 54°12' E 011°06'4 3.5 230 / 141005.2 3.2 1.9 3.5
2018-Jan-19 22:00N 54°12' E 011°12'0 0.0 230 / 101005.4 2.3 1.1 3.6
2018-Jan-19 21:00N 54°12' E 011°12'0 0.0 240 / 161005.3 2.9 1.3 3.6
2018-Jan-19 20:00N 54°12' E 011°12'4 3.5 230 / 161005.0 3.0 1.6 3.6
2018-Jan-19 19:00N 54°12' E 011°06'4 3.5 230 / 161004.7 2.9 1.8 3.6
2018-Jan-19 18:00N 54°12' E 011°12'6 6.0 220 / 161004.8 2.2 1.4 3.6
2018-Jan-19 17:00N 54°18' E 011°12'4 3.5 230 / 171004.8 2.0 0.8 3.7
2018-Jan-19 16:00N 54°18' E 011°18'0 0.0 240 / 161004.8 2.0 1.2 4.0
2018-Jan-19 15:00N 54°18' E 011°18'0 0.0 240 / 171004.3 2.0 1.0 4.0
2018-Jan-19 14:00N 54°18' E 011°18'7 6.9 240 / 161004.1 2.4 1.3 4.0
2018-Jan-19 13:00N 54°12' E 011°24'6 6.0 240 / 161003.8 2.4 1.4 4.0
2018-Jan-19 12:00N 54°18' E 011°24'0 0.0 240 / 171003.7 2.1 0.9 4.0
2018-Jan-19 11:00N 54°18' E 011°24'0 0.0 250 / 141003.6 2.7 1.6 4.1
2018-Jan-19 10:00N 54°18' E 011°24'6 6.0 240 / 121003.1 1.8 1.0 4.1
2018-Jan-19 09:00N 54°24' E 011°24'0 0.0 240 / 121002.4 1.9 1.2 4.2
2018-Jan-19 08:00N 54°24' E 011°24'0 0.0 250 / 101001.7 3.1 1.6 4.3
2018-Jan-19 07:00N 54°24' E 011°24'0 0.0 240 / 81001.1 1.9 1.2 4.3
2018-Jan-19 06:00N 54°24' E 011°24'2 6.1 240 / 121000.5 2.9 1.5 4.0
2018-Jan-19 05:35N 54°26' E 011°26'0 4.6
2018-Jan-19 05:30N 54°26' E 011°25'3 5.2
2018-Jan-19 05:00N 54°24' E 011°22'2684.3
2018-Jan-19 05:00N 54°24' E 011°18'1 2.4 240 / 101000.3 2.7 1.1 3.9
2018-Jan-19 04:30N 54°23' E 011°18'2 4.8
2018-Jan-19 04:00N 54°22' E 011°15'4448.9
2018-Jan-19 04:00N 54°18' E 011°12'3 5.4 240 / 8999.7 3.2 1.4 3.3
2018-Jan-19 03:30N 54°21' E 011°11'4 7.8
2018-Jan-19 03:00N 54°18' E 011°06'0 0.0 240 / 6999.3 2.7 1.6 3.2
2018-Jan-19 02:00N 54°18' E 011°06'2 9.9 250 / 10999.0 1.6 1.1 3.3
2018-Jan-19 01:47N 54°20' E 011°08'3 3.6
2018-Jan-19 01:00N 54°18' E 011°12'4 3.5 290 / 6998.5 1.9 0.9 3.4
2018-Jan-19 00:00N 54°18' E 011°06'0 0.0 290 / 12998.0 1.9 0.9 3.3
2018-Jan-18 23:00N 54°18' E 011°06'4 3.5 290 / 14997.6 1.9 0.4 3.4
2018-Jan-18 22:00N 54°18' E 011°12'4 3.5 280 / 16996.8 1.7 0.7 3.2
2018-Jan-18 21:00N 54°18' E 011°06'3 6.6 300 / 17995.8 2.4 1.3 3.3
2018-Jan-18 20:35N 54°20' E 011°09'0 0.5
2018-Jan-18 20:30N 54°20' E 011°09'3 5.3
2018-Jan-18 20:00N 54°18' E 011°06'0 0.0 310 / 16995.0 2.7 1.2 3.3
2018-Jan-18 19:00N 54°18' E 011°06'0 0.0 310 / 16993.7 2.9 2.0 3.4
2018-Jan-18 18:00N 54°18' E 011°06'4 3.5 330 / 16992.2 2.4 1.4 3.3
2018-Jan-18 17:00N 54°18' E 011°12'4 3.5 340 / 19990.1 2.2 1.0 3.4
2018-Jan-18 16:00N 54°18' E 011°06'1212.1 010 / 23987.8 2.5 1.4 3.3
2018-Jan-18 15:00N 54°24' E 011°24'1 9.5 040 / 27984.5 2.6 2.0 4.2
2018-Jan-18 14:50N 54°24' E 011°22'3 6.3
2018-Jan-18 14:25N 54°24' E 011°26'1 2.6
2018-Jan-18 14:00N 54°24' E 011°24'1116.4 060 / 29981.9 1.5 1.5 4.1
2018-Jan-18 13:59N 54°23' E 011°25'5 5.4
2018-Jan-18 13:00N 54°18' E 011°24'3 4.7 070 / 29981.5 1.3 1.2 3.9
2018-Jan-18 12:24N 54°21' E 011°22'3 6.6
2018-Jan-18 12:00N 54°18' E 011°24'2 4.0 100 / 27982.4 1.4 1.0 4.0
2018-Jan-18 11:26N 54°19' E 011°21'2 4.0
2018-Jan-18 11:00N 54°18' E 011°18'183.3 120 / 21984.6 1.6 1.0 3.8
2018-Jan-18 10:59N 54°18' E 011°19'1 1.5
2018-Jan-18 10:29N 54°19' E 011°18'1 1.2
2018-Jan-18 10:00N 54°18' E 011°18'6 6.0 150 / 21986.9 2.6 1.5 3.7
2018-Jan-18 09:00N 54°12' E 011°18'2 2.7 170 / 23989.2 4.9 2.1 3.9
2018-Jan-18 08:13N 54°13' E 011°21'523.0
2018-Jan-18 08:00N 54°12' E 011°30'230.8 180 / 21991.3 2.4 1.1 3.9
2018-Jan-18 07:55N 54°13' E 011°27'511.2
2018-Jan-18 07:30N 54°13' E 011°35'4 8.6
2018-Jan-18 07:00N 54°12' E 011°42'2893.7 210 / 21992.8 2.7 1.3 4.3
2018-Jan-18 06:59N 54°13' E 011°44'6 6.0
2018-Jan-18 06:00N 54°12' E 011°54'338.6 220 / 17994.4 2.8 1.1 4.3
2018-Jan-18 05:55N 54°12' E 011°49'410.0
2018-Jan-18 05:30N 54°12' E 011°56'611.7
2018-Jan-18 05:00N 54°12' E 012°06'1345.0 230 / 10996.3 2.3 0.6 3.7
2018-Jan-18 04:59N 54°11' E 012°05'1 1.6
2018-Jan-18 04:30N 54°11' E 012°06'1 2.5
2018-Jan-18 04:00N 54°12' E 012°06'1 1.3 220 / 10997.0 2.3 0.6 3.7
2018-Jan-18 03:01N 54°11' E 012°06'164.0
2018-Jan-18 03:00N 54°12' E 012°06'116.0 230 / 12997.5 2.3 0.6 3.7
2018-Jan-18 02:55N 54°11' E 012°06'0 0.0
2018-Jan-18 02:29N 54°11' E 012°06'1 2.6
2018-Jan-18 02:00N 54°12' E 012°06'1575.6 240 / 12997.8 2.2 0.6 3.7
2018-Jan-18 01:59N 54°11' E 012°06'0 0.0
2018-Jan-18 01:30N 54°11' E 012°06'0 0.0
2018-Jan-18 01:00N 54°11' E 012°06'1383.8
2018-Jan-18 01:00N 54°12' E 012°06'0 0.0 240 / 12998.0 2.0 0.5 3.7
2018-Jan-18 00:00N 54°12' E 012°06'1 2.5 240 / 12997.7 2.1 0.7 3.7
2018-Jan-17 23:29N 54°11' E 012°06'1 2.6
2018-Jan-17 23:00N 54°12' E 012°06'0 0.0 240 / 12997.9 0.8 0.1 3.7
2018-Jan-17 22:00N 54°12' E 012°06'0 0.0 250 / 8997.4 1.7 0.2 3.8
2018-Jan-17 21:00N 54°12' E 012°06'0 0.0 240 / 10996.9 1.7-0.1 3.8
2018-Jan-17 20:00N 54°12' E 012°06'0 0.0 250 / 8996.2 1.8 0.3 3.9
2018-Jan-17 19:00N 54°12' E 012°06'0 0.0 240 / 12995.6 2.2 0.3 3.7
2018-Jan-17 18:00N 54°12' E 012°06'0 0.0 250 / 12995.1 2.0-0.1 3.7
2018-Jan-17 17:00N 54°12' E 012°06'0 0.0 250 / 12994.3 2.1-0.1 3.7
2018-Jan-17 16:00N 54°12' E 012°06'1110.5 250 / 19993.4 2.9 0.2 3.8
2018-Jan-17 15:00N 54°12' E 011°48'7 7.0 260 / 21992.6 4.0 1.9 4.4
2018-Jan-17 14:00N 54°12' E 011°36'9 9.2 250 / 23991.7 3.7 1.6 4.5
2018-Jan-17 13:00N 54°18' E 011°24'0 0.0 250 / 21991.4 3.2 1.3 3.5
2018-Jan-17 12:00N 54°18' E 011°24'0 0.0 250 / 21990.1 2.7 0.7 4.2
2018-Jan-17 11:00N 54°18' E 011°24'1212.1 250 / 17989.9 2.4 0.7 4.0
2018-Jan-17 10:00N 54°12' E 011°42'4 3.5 260 / 19989.4 2.7 0.5 4.6
2018-Jan-17 09:00N 54°12' E 011°48'4 3.5 240 / 17988.9 2.8 1.1 4.2
2018-Jan-17 08:00N 54°12' E 011°54'0 0.0 230 / 16988.4 1.9 1.0 3.8
2018-Jan-17 07:00N 54°12' E 011°54'4 3.5 230 / 17987.8 2.4 0.6 4.4
2018-Jan-17 06:00N 54°12' E 012°00'0 0.0 230 / 16987.6 2.9 0.7 4.3
2018-Jan-17 05:00N 54°12' E 012°00'0 0.0 240 / 19987.2 2.6 0.6 4.2
2018-Jan-17 04:00N 54°12' E 012°00'0 0.0 240 / 19987.0 2.7 1.2 4.3
2018-Jan-17 03:00N 54°12' E 012°00'0 0.0 240 / 21987.3 2.8 1.0 4.3
2018-Jan-17 02:00N 54°12' E 012°00'0 0.0 250 / 25987.2 2.5 0.8 4.4
2018-Jan-17 01:00N 54°12' E 012°00'4 3.5 240 / 23987.3 2.5 0.6 4.5
2018-Jan-17 00:00N 54°12' E 012°06'7 6.9 250 / 25987.0 2.9 1.1 4.5
2018-Jan-16 23:00N 54°18' E 012°12'6 6.0 250 / 27987.0 3.1 1.4 4.4
2018-Jan-16 22:00N 54°24' E 012°12'3 3.5 250 / 27986.7 3.1 1.6 4.6
2018-Jan-16 21:00N 54°24' E 012°18'7 6.9 250 / 25986.5 3.1 1.7 4.6
2018-Jan-16 20:00N 54°30' E 012°24'50 4.2 260 / 25986.1 3.2 1.5 4.6
2018-Jan-16 08:00N 54°42' E 013°48'0 0.0 190 / 21987.5 2.9 1.2 4.6
2018-Jan-16 07:00N 54°42' E 013°48'7 6.9 190 / 25987.6 3.1 2.6 3.7
2018-Jan-16 06:00N 54°36' E 013°42'1010.4 170 / 29987.2 1.7 1.7 4.5
2018-Jan-16 05:00N 54°36' E 013°24'0 0.0 180 / 27987.5 0.8 0.7 4.5
2018-Jan-16 03:00N 54°36' E 013°24'0 0.0 170 / 31989.3 1.1-0.2 4.7
2018-Jan-16 01:00N 54°36' E 013°24'0 0.0 160 / 31992.3 1.3-1.3 4.8
2018-Jan-16 00:00N 54°36' E 013°24'0 0.0 170 / 31993.9 1.6-1.9 4.2
2018-Jan-15 23:00N 54°36' E 013°24'0 0.0 160 / 29995.8 1.3-1.6 4.4
2018-Jan-15 22:00N 54°36' E 013°24'0 0.0 160 / 29997.3 1.4-1.8 4.4
2018-Jan-15 20:00N 54°36' E 013°24'0 0.0 160 / 271000.8 1.4-1.4 4.2
2018-Jan-15 17:00N 54°36' E 013°24'6 6.0 170 / 291004.7 1.7-1.4 4.1
2018-Jan-15 16:00N 54°42' E 013°24'7 6.9 160 / 311006.2 1.4-1.7 4.4
2018-Jan-15 15:00N 54°42' E 013°12'3 3.5 160 / 271007.3 1.1-2.0 4.5
2018-Jan-15 14:00N 54°42' E 013°18'3 3.5 160 / 291008.9 1.1-2.3 4.7
2018-Jan-15 13:00N 54°42' E 013°12'0 0.0 160 / 291010.1 0.2-2.4 4.5
2018-Jan-15 12:00N 54°42' E 013°12'3 3.5 160 / 291011.9 0.2-2.4 4.9
2018-Jan-15 11:00N 54°42' E 013°18'0 0.0 160 / 291014.2 -0.5-2.7 4.2
2018-Jan-15 10:00N 54°42' E 013°18'0 0.0 150 / 271015.9 -0.6-2.5 4.4
2018-Jan-15 09:00N 54°42' E 013°18'0 0.0 150 / 231017.5 -1.1-3.0 4.3
2018-Jan-15 08:00N 54°42' E 013°18'3 3.5 150 / 211018.6 -1.0-3.3 4.2
2018-Jan-15 07:00N 54°42' E 013°12'0 0.0 150 / 231019.3 -1.6-3.7 4.9
2018-Jan-15 06:00N 54°42' E 013°12'3 3.5 160 / 231020.3 -1.5-3.2 4.6
2018-Jan-15 05:00N 54°42' E 013°18'0 0.0 160 / 211021.4 -1.8-4.2 4.3
2018-Jan-15 04:00N 54°42' E 013°18'0 0.0 150 / 191022.2 -1.9-4.0 4.3
2018-Jan-15 03:00N 54°42' E 013°18'0 0.0 160 / 191023.2 -1.9-4.2 4.2
2018-Jan-15 01:00N 54°42' E 013°18'0 0.0 160 / 171025.0 -1.7-4.1 4.2
2018-Jan-15 00:00N 54°42' E 013°18'0 0.0 160 / 141026.2 -1.8-4.3 4.4
2018-Jan-14 23:00N 54°42' E 013°18'0 0.0 150 / 141026.7 -1.8-4.5 4.4
2018-Jan-14 22:00N 54°42' E 013°18'0 0.0 170 / 171027.5 -2.0-4.5 4.4
2018-Jan-14 21:00N 54°42' E 013°18'0 0.0 170 / 161027.9 -1.9-5.2 4.5
2018-Jan-14 20:00N 54°42' E 013°18'0 0.0 150 / 141027.9 -2.1-5.7 4.5
2018-Jan-14 19:00N 54°42' E 013°18'0 0.0 150 / 141028.4 -2.0-5.1 4.5
2018-Jan-14 17:00N 54°42' E 013°18'3 3.5 160 / 161029.4 -2.3-5.9 4.5
2018-Jan-14 16:00N 54°42' E 013°24'0 0.0 160 / 161029.9 -1.9-4.9 4.4
2018-Jan-14 15:00N 54°42' E 013°24'7 6.9 140 / 161030.3 -1.7-4.1 4.5
2018-Jan-14 14:00N 54°48' E 013°30'0 0.0 140 / 161030.5 -1.5-4.6 5.1
2018-Jan-14 13:00N 54°48' E 013°30'0 0.0 130 / 171030.8 -1.2-4.8 4.9
2018-Jan-14 12:00N 54°48' E 013°30'7 6.9 130 / 171031.5 -1.5-5.4 4.9
2018-Jan-14 11:00N 54°54' E 013°24'6 6.0 140 / 171031.7 -0.2-3.7 4.8
2018-Jan-14 10:00N 54°48' E 013°24'3 3.5 150 / 141032.4 0.9-3.7 4.9
2018-Jan-14 09:00N 54°48' E 013°30'3 3.5 140 / 141032.2 0.2-3.4 5.1
2018-Jan-14 08:00N 54°48' E 013°24'0 0.0 130 / 161032.1 -0.1-3.8 5.1
2018-Jan-14 07:00N 54°48' E 013°24'7 6.9 140 / 161032.1 -0.1-3.8 5.1
2018-Jan-14 06:00N 54°42' E 013°30'3 3.5 130 / 171032.2 -0.2-4.1 4.4
2018-Jan-14 05:00N 54°42' E 013°24'3 3.5 120 / 171032.0 -0.1-4.5 4.6
2018-Jan-14 04:00N 54°42' E 013°18'3 3.5 130 / 141032.3 0.1-4.2 5.7
2018-Jan-14 03:00N 54°42' E 013°12'0 0.0 140 / 161032.3 0.2-3.6 5.3
2018-Jan-14 02:00N 54°42' E 013°12'3 3.5 140 / 141032.8 0.7-4.1 5.7
2018-Jan-14 01:00N 54°42' E 013°18'3 3.5 130 / 121032.9 -0.0-4.8 5.8
2018-Jan-14 00:00N 54°42' E 013°12'3 3.5 140 / 171033.1 0.6-3.5 5.9
2018-Jan-13 23:00N 54°42' E 013°18'7 0.2 130 / 141033.5 -0.0-4.6 5.8
2018-Jan-12 15:00N 54°42' E 013°30'10 5.2 090 / 211032.4 3.3 1.3 5.2
2018-Jan-12 13:00N 54°42' E 013°48'0 0.0 090 / 211031.6 3.4 1.4 5.3
2018-Jan-12 12:00N 54°42' E 013°48'0 0.0 090 / 211031.6 3.8 1.5 5.4
2018-Jan-12 11:00N 54°42' E 013°48'7 6.9 090 / 231031.2 3.5 1.2 5.0
2018-Jan-12 10:00N 54°36' E 013°42'7 6.9 090 / 211030.9 3.7 1.4 5.0
2018-Jan-12 09:00N 54°30' E 013°36'0 0.0 110 / 171030.4 3.6-0.7 4.1
2018-Jan-12 08:00N 54°30' E 013°36'0 0.0 100 / 171030.0 3.1-0.2 4.2
2018-Jan-12 07:00N 54°30' E 013°36'0 0.0 100 / 171029.4 2.5-0.3 4.2
2018-Jan-12 06:00N 54°30' E 013°36'0 0.0 080 / 171028.8 2.0-0.4 4.2
2018-Jan-12 05:00N 54°30' E 013°36'0 0.0 080 / 171028.2 1.5-0.4 4.2
2018-Jan-12 04:00N 54°30' E 013°36'0 0.0 080 / 161027.8 1.7 0.4 4.2
2018-Jan-12 03:00N 54°30' E 013°36'0 0.0 080 / 161027.3 1.9 0.6 4.2
2018-Jan-12 02:00N 54°30' E 013°36'0 0.0 100 / 141026.6 2.1 1.2 4.2
2018-Jan-12 01:00N 54°30' E 013°36'0 0.0 090 / 161026.2 2.1 1.3 4.3
2018-Jan-12 00:00N 54°30' E 013°36'   090 / 141025.8 2.1 1.1 4.3
Track history (hours):
 
Tides and Currents Weather Stations Pressure Air Temp Water Temp Dewpoint Dewpoint Depression Visibility Wind Speed Wind Dir Waves Ship Positions

Solea

Last reported at 2018-Jan-21 23:30 UTC. Time now 2018-Jan-22 00:14 UTC.
Position N 54°21' E 011°11'.

Length 42.7 m; beam 9.8 m; draft 4.8 m.

Type: Fishing. MMSI: 211417588.

Date/timePositionNaut miles runAvg speedWind from/ knotsBaromVisibWave heightAir tempDewpointWater temp
2018-Jan-21 23:30N 54°21' E 011°11'3 5.7
2018-Jan-21 23:00N 54°18' E 011°12'0 0.0 200 / 21015.4 -0.2-0.2 3.3
2018-Jan-21 22:00N 54°18' E 011°12'0 0.0 030 / 21015.9 -0.7-0.7 3.4
2018-Jan-21 21:00N 54°18' E 011°12'3 7.3 1016.2 -0.9-1.0 3.3
2018-Jan-21 20:37N 54°21' E 011°11'0 1.0
2018-Jan-21 20:15N 54°20' E 011°11'2 9.7
2018-Jan-21 20:00N 54°18' E 011°12'2163.6 200 / 21016.6 -0.3-0.4 3.3
2018-Jan-21 19:59N 54°20' E 011°11'0 1.0
2018-Jan-21 19:30N 54°20' E 011°11'2 3.7
2018-Jan-21 19:00N 54°18' E 011°12'0 0.0 210 / 21016.5 0.1 0.1 3.5
2018-Jan-21 18:00N 54°18' E 011°12'0 0.0 210 / 61016.4 -0.1-0.2 3.5
2018-Jan-21 17:00N 54°18' E 011°12'1 1.2 220 / 61016.5 -0.2-0.2 3.4
2018-Jan-21 16:18N 54°19' E 011°12'1 2.6
2018-Jan-21 16:00N 54°18' E 011°12'1 1.4 210
2018-Jan-21 15:11N 54°19' E 011°13'315.1
2018-Jan-21 15:00N 54°18' E 011°18'1 8.2 220 / 6
2018-Jan-21 14:50N 54°19' E 011°16'1 1.6
2018-Jan-21 14:00N 54°18' E 011°18'9 9.2
2018-Jan-21 13:00N 54°12' E 011°30'9 4.6
2018-Jan-21 11:00N 54°18' E 011°18'0 0.0 090 / 41013.9 3.0 1.1 3.5
2018-Jan-21 10:00N 54°18' E 011°18'7 6.9 080 / 61013.1 2.9 0.9 3.5
2018-Jan-21 09:00N 54°12' E 011°24'0 0.0 070 / 61012.3 3.9 0.5 3.7
2018-Jan-21 08:00N 54°12' E 011°24'6 6.0 060 / 41011.2 3.4 0.9 3.7
2018-Jan-21 07:00N 54°18' E 011°24'4 3.5 060 / 41010.0 2.8-0.3 3.8
2018-Jan-21 06:00N 54°18' E 011°18'4 3.5 1009.1 2.9 0.8 3.6
2018-Jan-21 05:00N 54°18' E 011°12'0 0.0 150 / 21008.4 2.4 0.9 3.3
2018-Jan-21 04:00N 54°18' E 011°12'0 0.0 160 / 41007.5 3.2 1.3 3.3
2018-Jan-21 03:00N 54°18' E 011°12'2 6.9 170 / 41006.6 3.1 1.2 3.4
2018-Jan-21 02:40N 54°20' E 011°09'0 0.5
2018-Jan-21 02:27N 54°19' E 011°09'2 4.8
2018-Jan-21 02:00N 54°18' E 011°12'4 3.5 150 / 61005.9 3.1 1.3 3.5
2018-Jan-21 01:00N 54°18' E 011°06'0 0.0 140 / 61004.9 2.1 0.9 3.3
2018-Jan-21 00:00N 54°18' E 011°06'0 0.0 160 / 81004.3 2.9 1.0 3.4
2018-Jan-20 23:00N 54°18' E 011°06'233.5 160 / 101003.7 3.2 1.1 3.5
2018-Jan-20 22:55N 54°20' E 011°09'3 3.1
2018-Jan-20 22:00N 54°18' E 011°12'0 0.0 150 / 121003.4 3.2 0.8 3.3
2018-Jan-20 21:00N 54°18' E 011°12'4 3.5 150 / 141003.0 2.5 0.1 3.4
2018-Jan-20 20:00N 54°18' E 011°06'0 0.0 150 / 101002.8 2.6 0.3 3.4
2018-Jan-20 19:00N 54°18' E 011°06'0 0.0 150 / 121002.5 3.4 0.6 3.5
2018-Jan-20 18:00N 54°18' E 011°06'2 2.1 150 / 121002.4 3.0 0.4 3.5
2018-Jan-20 17:08N 54°19' E 011°09'0 0.6
2018-Jan-20 17:00N 54°19' E 011°09'2120.2
2018-Jan-20 17:00N 54°18' E 011°06'4 3.5 180 / 101002.4 2.8 0.1 3.5
2018-Jan-20 16:00N 54°18' E 011°12'1 5.2 190 / 81002.7 2.2-0.3 3.5
2018-Jan-20 15:46N 54°18' E 011°10'2 5.5
2018-Jan-20 15:28N 54°18' E 011°13'3 6.3
2018-Jan-20 15:00N 54°18' E 011°18'0 0.0 210 / 81002.8 2.3-0.2 3.9
2018-Jan-20 14:00N 54°18' E 011°18'0 0.0 220 / 141002.7 2.3 0.1 3.7
2018-Jan-20 13:00N 54°18' E 011°18'0 0.0 220 / 141003.0 2.1 0.1 3.5
2018-Jan-20 12:00N 54°18' E 011°18'6 6.0 220 / 141003.7 2.1 0.1 3.9
2018-Jan-20 11:00N 54°12' E 011°18'7 6.9 200 / 141004.4 1.9 0.8 4.0
2018-Jan-20 10:00N 54°18' E 011°24'0 0.0 220 / 161004.7 2.0 0.1 3.9
2018-Jan-20 09:00N 54°18' E 011°24'0 0.0 220 / 171004.4 2.1-0.0 4.0
2018-Jan-20 08:00N 54°18' E 011°24'0 0.0 220 / 171004.4 2.7 0.6 4.0
2018-Jan-20 07:00N 54°18' E 011°24'7 6.9 230 / 171004.3 2.1 0.7 4.0
2018-Jan-20 06:00N 54°12' E 011°18'4 3.5 230 / 171004.4 2.2 0.6 3.9
2018-Jan-20 05:00N 54°12' E 011°12'4 3.5 230 / 171004.5 2.7 0.9 3.5
2018-Jan-20 04:00N 54°12' E 011°06'0 0.0 240 / 141004.8 2.7 1.0 3.4
2018-Jan-20 03:00N 54°12' E 011°06'4 3.5 230 / 121005.2 2.2 0.8 3.4
2018-Jan-20 02:00N 54°12' E 011°12'0 0.0 240 / 121005.4 2.8 0.9 3.5
2018-Jan-20 01:00N 54°12' E 011°12'4 3.5 230 / 141005.3 2.9 1.0 3.6
2018-Jan-20 00:00N 54°12' E 011°06'0 0.0 230 / 141005.1 2.9 1.4 3.5
2018-Jan-19 23:00N 54°12' E 011°06'4 3.5 230 / 141005.2 3.2 1.9 3.5
2018-Jan-19 22:00N 54°12' E 011°12'0 0.0 230 / 101005.4 2.3 1.1 3.6
2018-Jan-19 21:00N 54°12' E 011°12'0 0.0 240 / 161005.3 2.9 1.3 3.6
2018-Jan-19 20:00N 54°12' E 011°12'4 3.5 230 / 161005.0 3.0 1.6 3.6
2018-Jan-19 19:00N 54°12' E 011°06'4 3.5 230 / 161004.7 2.9 1.8 3.6
2018-Jan-19 18:00N 54°12' E 011°12'6 6.0 220 / 161004.8 2.2 1.4 3.6
2018-Jan-19 17:00N 54°18' E 011°12'4 3.5 230 / 171004.8 2.0 0.8 3.7
2018-Jan-19 16:00N 54°18' E 011°18'0 0.0 240 / 161004.8 2.0 1.2 4.0
2018-Jan-19 15:00N 54°18' E 011°18'0 0.0 240 / 171004.3 2.0 1.0 4.0
2018-Jan-19 14:00N 54°18' E 011°18'7 6.9 240 / 161004.1 2.4 1.3 4.0
2018-Jan-19 13:00N 54°12' E 011°24'6 6.0 240 / 161003.8 2.4 1.4 4.0
2018-Jan-19 12:00N 54°18' E 011°24'0 0.0 240 / 171003.7 2.1 0.9 4.0
2018-Jan-19 11:00N 54°18' E 011°24'0 0.0 250 / 141003.6 2.7 1.6 4.1
2018-Jan-19 10:00N 54°18' E 011°24'6 6.0 240 / 121003.1 1.8 1.0 4.1
2018-Jan-19 09:00N 54°24' E 011°24'0 0.0 240 / 121002.4 1.9 1.2 4.2
2018-Jan-19 08:00N 54°24' E 011°24'0 0.0 250 / 101001.7 3.1 1.6 4.3
2018-Jan-19 07:00N 54°24' E 011°24'0 0.0 240 / 81001.1 1.9 1.2 4.3
2018-Jan-19 06:00N 54°24' E 011°24'2 6.1 240 / 121000.5 2.9 1.5 4.0
2018-Jan-19 05:35N 54°26' E 011°26'0 4.6
2018-Jan-19 05:30N 54°26' E 011°25'3 5.2
2018-Jan-19 05:00N 54°24' E 011°22'2684.3
2018-Jan-19 05:00N 54°24' E 011°18'1 2.4 240 / 101000.3 2.7 1.1 3.9
2018-Jan-19 04:30N 54°23' E 011°18'2 4.8
2018-Jan-19 04:00N 54°22' E 011°15'4448.9
2018-Jan-19 04:00N 54°18' E 011°12'3 5.4 240 / 8999.7 3.2 1.4 3.3
2018-Jan-19 03:30N 54°21' E 011°11'4 7.8
2018-Jan-19 03:00N 54°18' E 011°06'0 0.0 240 / 6999.3 2.7 1.6 3.2
2018-Jan-19 02:00N 54°18' E 011°06'2 9.9 250 / 10999.0 1.6 1.1 3.3
2018-Jan-19 01:47N 54°20' E 011°08'3 3.6
2018-Jan-19 01:00N 54°18' E 011°12'4 3.5 290 / 6998.5 1.9 0.9 3.4
2018-Jan-19 00:00N 54°18' E 011°06'0 0.0 290 / 12998.0 1.9 0.9 3.3
2018-Jan-18 23:00N 54°18' E 011°06'4 3.5 290 / 14997.6 1.9 0.4 3.4
2018-Jan-18 22:00N 54°18' E 011°12'4 3.5 280 / 16996.8 1.7 0.7 3.2
2018-Jan-18 21:00N 54°18' E 011°06'3 6.6 300 / 17995.8 2.4 1.3 3.3
2018-Jan-18 20:35N 54°20' E 011°09'0 0.5
2018-Jan-18 20:30N 54°20' E 011°09'3 5.3
2018-Jan-18 20:00N 54°18' E 011°06'0 0.0 310 / 16995.0 2.7 1.2 3.3
2018-Jan-18 19:00N 54°18' E 011°06'0 0.0 310 / 16993.7 2.9 2.0 3.4
2018-Jan-18 18:00N 54°18' E 011°06'4 3.5 330 / 16992.2 2.4 1.4 3.3
2018-Jan-18 17:00N 54°18' E 011°12'4 3.5 340 / 19990.1 2.2 1.0 3.4
2018-Jan-18 16:00N 54°18' E 011°06'1212.1 010 / 23987.8 2.5 1.4 3.3
2018-Jan-18 15:00N 54°24' E 011°24'1 9.5 040 / 27984.5 2.6 2.0 4.2
2018-Jan-18 14:50N 54°24' E 011°22'3 6.3
2018-Jan-18 14:25N 54°24' E 011°26'1 2.6
2018-Jan-18 14:00N 54°24' E 011°24'1116.4 060 / 29981.9 1.5 1.5 4.1
2018-Jan-18 13:59N 54°23' E 011°25'5 5.4
2018-Jan-18 13:00N 54°18' E 011°24'3 4.7 070 / 29981.5 1.3 1.2 3.9
2018-Jan-18 12:24N 54°21' E 011°22'3 6.6
2018-Jan-18 12:00N 54°18' E 011°24'2 4.0 100 / 27982.4 1.4 1.0 4.0
2018-Jan-18 11:26N 54°19' E 011°21'2 4.0
2018-Jan-18 11:00N 54°18' E 011°18'183.3 120 / 21984.6 1.6 1.0 3.8
2018-Jan-18 10:59N 54°18' E 011°19'1 1.5
2018-Jan-18 10:29N 54°19' E 011°18'1 1.2
2018-Jan-18 10:00N 54°18' E 011°18'6 6.0 150 / 21986.9 2.6 1.5 3.7
2018-Jan-18 09:00N 54°12' E 011°18'2 2.7 170 / 23989.2 4.9 2.1 3.9
2018-Jan-18 08:13N 54°13' E 011°21'523.0
2018-Jan-18 08:00N 54°12' E 011°30'230.8 180 / 21991.3 2.4 1.1 3.9
2018-Jan-18 07:55N 54°13' E 011°27'511.2
2018-Jan-18 07:30N 54°13' E 011°35'4 8.6
2018-Jan-18 07:00N 54°12' E 011°42'2893.7 210 / 21992.8 2.7 1.3 4.3
2018-Jan-18 06:59N 54°13' E 011°44'6 6.0
2018-Jan-18 06:00N 54°12' E 011°54'338.6 220 / 17994.4 2.8 1.1 4.3
2018-Jan-18 05:55N 54°12' E 011°49'410.0
2018-Jan-18 05:30N 54°12' E 011°56'611.7
2018-Jan-18 05:00N 54°12' E 012°06'1345.0 230 / 10996.3 2.3 0.6 3.7
2018-Jan-18 04:59N 54°11' E 012°05'1 1.6
2018-Jan-18 04:30N 54°11' E 012°06'1 2.5
2018-Jan-18 04:00N 54°12' E 012°06'1 1.3 220 / 10997.0 2.3 0.6 3.7
2018-Jan-18 03:01N 54°11' E 012°06'164.0
2018-Jan-18 03:00N 54°12' E 012°06'116.0 230 / 12997.5 2.3 0.6 3.7
2018-Jan-18 02:55N 54°11' E 012°06'0 0.0
2018-Jan-18 02:29N 54°11' E 012°06'1 2.6
2018-Jan-18 02:00N 54°12' E 012°06'1575.6 240 / 12997.8 2.2 0.6 3.7
2018-Jan-18 01:59N 54°11' E 012°06'0 0.0
2018-Jan-18 01:30N 54°11' E 012°06'0 0.0
2018-Jan-18 01:00N 54°11' E 012°06'1383.8
2018-Jan-18 01:00N 54°12' E 012°06'0 0.0 240 / 12998.0 2.0 0.5 3.7
2018-Jan-18 00:00N 54°12' E 012°06'1 2.5 240 / 12997.7 2.1 0.7 3.7
2018-Jan-17 23:29N 54°11' E 012°06'1 2.6
2018-Jan-17 23:00N 54°12' E 012°06'0 0.0 240 / 12997.9 0.8 0.1 3.7
2018-Jan-17 22:00N 54°12' E 012°06'0 0.0 250 / 8997.4 1.7 0.2 3.8
2018-Jan-17 21:00N 54°12' E 012°06'0 0.0 240 / 10996.9 1.7-0.1 3.8
2018-Jan-17 20:00N 54°12' E 012°06'0 0.0 250 / 8996.2 1.8 0.3 3.9
2018-Jan-17 19:00N 54°12' E 012°06'0 0.0 240 / 12995.6 2.2 0.3 3.7
2018-Jan-17 18:00N 54°12' E 012°06'0 0.0 250 / 12995.1 2.0-0.1 3.7
2018-Jan-17 17:00N 54°12' E 012°06'0 0.0 250 / 12994.3 2.1-0.1 3.7
2018-Jan-17 16:00N 54°12' E 012°06'1110.5 250 / 19993.4 2.9 0.2 3.8
2018-Jan-17 15:00N 54°12' E 011°48'7 7.0 260 / 21992.6 4.0 1.9 4.4
2018-Jan-17 14:00N 54°12' E 011°36'9 9.2 250 / 23991.7 3.7 1.6 4.5
2018-Jan-17 13:00N 54°18' E 011°24'0 0.0 250 / 21991.4 3.2 1.3 3.5
2018-Jan-17 12:00N 54°18' E 011°24'0 0.0 250 / 21990.1 2.7 0.7 4.2
2018-Jan-17 11:00N 54°18' E 011°24'1212.1 250 / 17989.9 2.4 0.7 4.0
2018-Jan-17 10:00N 54°12' E 011°42'4 3.5 260 / 19989.4 2.7 0.5 4.6
2018-Jan-17 09:00N 54°12' E 011°48'4 3.5 240 / 17988.9 2.8 1.1 4.2
2018-Jan-17 08:00N 54°12' E 011°54'0 0.0 230 / 16988.4 1.9 1.0 3.8
2018-Jan-17 07:00N 54°12' E 011°54'4 3.5 230 / 17987.8 2.4 0.6 4.4
2018-Jan-17 06:00N 54°12' E 012°00'0 0.0 230 / 16987.6 2.9 0.7 4.3
2018-Jan-17 05:00N 54°12' E 012°00'0 0.0 240 / 19987.2 2.6 0.6 4.2
2018-Jan-17 04:00N 54°12' E 012°00'0 0.0 240 / 19987.0 2.7 1.2 4.3
2018-Jan-17 03:00N 54°12' E 012°00'0 0.0 240 / 21987.3 2.8 1.0 4.3
2018-Jan-17 02:00N 54°12' E 012°00'0 0.0 250 / 25987.2 2.5 0.8 4.4
2018-Jan-17 01:00N 54°12' E 012°00'4 3.5 240 / 23987.3 2.5 0.6 4.5
2018-Jan-17 00:00N 54°12' E 012°06'7 6.9 250 / 25987.0 2.9 1.1 4.5
2018-Jan-16 23:00N 54°18' E 012°12'6 6.0 250 / 27987.0 3.1 1.4 4.4
2018-Jan-16 22:00N 54°24' E 012°12'3 3.5 250 / 27986.7 3.1 1.6 4.6
2018-Jan-16 21:00N 54°24' E 012°18'7 6.9 250 / 25986.5 3.1 1.7 4.6
2018-Jan-16 20:00N 54°30' E 012°24'50 4.2 260 / 25986.1 3.2 1.5 4.6
2018-Jan-16 08:00N 54°42' E 013°48'0 0.0 190 / 21987.5 2.9 1.2 4.6
2018-Jan-16 07:00N 54°42' E 013°48'7 6.9 190 / 25987.6 3.1 2.6 3.7
2018-Jan-16 06:00N 54°36' E 013°42'1010.4 170 / 29987.2 1.7 1.7 4.5
2018-Jan-16 05:00N 54°36' E 013°24'0 0.0 180 / 27987.5 0.8 0.7 4.5
2018-Jan-16 03:00N 54°36' E 013°24'0 0.0 170 / 31989.3 1.1-0.2 4.7
2018-Jan-16 01:00N 54°36' E 013°24'0 0.0 160 / 31992.3 1.3-1.3 4.8
2018-Jan-16 00:00N 54°36' E 013°24'0 0.0 170 / 31993.9 1.6-1.9 4.2
2018-Jan-15 23:00N 54°36' E 013°24'0 0.0 160 / 29995.8 1.3-1.6 4.4
2018-Jan-15 22:00N 54°36' E 013°24'0 0.0 160 / 29997.3 1.4-1.8 4.4
2018-Jan-15 20:00N 54°36' E 013°24'0 0.0 160 / 271000.8 1.4-1.4 4.2
2018-Jan-15 17:00N 54°36' E 013°24'6 6.0 170 / 291004.7 1.7-1.4 4.1
2018-Jan-15 16:00N 54°42' E 013°24'7 6.9 160 / 311006.2 1.4-1.7 4.4
2018-Jan-15 15:00N 54°42' E 013°12'3 3.5 160 / 271007.3 1.1-2.0 4.5
2018-Jan-15 14:00N 54°42' E 013°18'3 3.5 160 / 291008.9 1.1-2.3 4.7
2018-Jan-15 13:00N 54°42' E 013°12'0 0.0 160 / 291010.1 0.2-2.4 4.5
2018-Jan-15 12:00N 54°42' E 013°12'3 3.5 160 / 291011.9 0.2-2.4 4.9
2018-Jan-15 11:00N 54°42' E 013°18'0 0.0 160 / 291014.2 -0.5-2.7 4.2
2018-Jan-15 10:00N 54°42' E 013°18'0 0.0 150 / 271015.9 -0.6-2.5 4.4
2018-Jan-15 09:00N 54°42' E 013°18'0 0.0 150 / 231017.5 -1.1-3.0 4.3
2018-Jan-15 08:00N 54°42' E 013°18'3 3.5 150 / 211018.6 -1.0-3.3 4.2
2018-Jan-15 07:00N 54°42' E 013°12'0 0.0 150 / 231019.3 -1.6-3.7 4.9
2018-Jan-15 06:00N 54°42' E 013°12'3 3.5 160 / 231020.3 -1.5-3.2 4.6
2018-Jan-15 05:00N 54°42' E 013°18'0 0.0 160 / 211021.4 -1.8-4.2 4.3
2018-Jan-15 04:00N 54°42' E 013°18'0 0.0 150 / 191022.2 -1.9-4.0 4.3
2018-Jan-15 03:00N 54°42' E 013°18'0 0.0 160 / 191023.2 -1.9-4.2 4.2
2018-Jan-15 01:00N 54°42' E 013°18'0 0.0 160 / 171025.0 -1.7-4.1 4.2
2018-Jan-15 00:00N 54°42' E 013°18'0 0.0 160 / 141026.2 -1.8-4.3 4.4
2018-Jan-14 23:00N 54°42' E 013°18'0 0.0 150 / 141026.7 -1.8-4.5 4.4
2018-Jan-14 22:00N 54°42' E 013°18'0 0.0 170 / 171027.5 -2.0-4.5 4.4
2018-Jan-14 21:00N 54°42' E 013°18'0 0.0 170 / 161027.9 -1.9-5.2 4.5
2018-Jan-14 20:00N 54°42' E 013°18'0 0.0 150 / 141027.9 -2.1-5.7 4.5
2018-Jan-14 19:00N 54°42' E 013°18'0 0.0 150 / 141028.4 -2.0-5.1 4.5
2018-Jan-14 17:00N 54°42' E 013°18'3 3.5 160 / 161029.4 -2.3-5.9 4.5
2018-Jan-14 16:00N 54°42' E 013°24'0 0.0 160 / 161029.9 -1.9-4.9 4.4
2018-Jan-14 15:00N 54°42' E 013°24'7 6.9 140 / 161030.3 -1.7-4.1 4.5
2018-Jan-14 14:00N 54°48' E 013°30'0 0.0 140 / 161030.5 -1.5-4.6 5.1
2018-Jan-14 13:00N 54°48' E 013°30'0 0.0 130 / 171030.8 -1.2-4.8 4.9
2018-Jan-14 12:00N 54°48' E 013°30'7 6.9 130 / 171031.5 -1.5-5.4 4.9
2018-Jan-14 11:00N 54°54' E 013°24'6 6.0 140 / 171031.7 -0.2-3.7 4.8
2018-Jan-14 10:00N 54°48' E 013°24'3 3.5 150 / 141032.4 0.9-3.7 4.9
2018-Jan-14 09:00N 54°48' E 013°30'3 3.5 140 / 141032.2 0.2-3.4 5.1
2018-Jan-14 08:00N 54°48' E 013°24'0 0.0 130 / 161032.1 -0.1-3.8 5.1
2018-Jan-14 07:00N 54°48' E 013°24'7 6.9 140 / 161032.1 -0.1-3.8 5.1
2018-Jan-14 06:00N 54°42' E 013°30'3 3.5 130 / 171032.2 -0.2-4.1 4.4
2018-Jan-14 05:00N 54°42' E 013°24'3 3.5 120 / 171032.0 -0.1-4.5 4.6
2018-Jan-14 04:00N 54°42' E 013°18'3 3.5 130 / 141032.3 0.1-4.2 5.7
2018-Jan-14 03:00N 54°42' E 013°12'0 0.0 140 / 161032.3 0.2-3.6 5.3
2018-Jan-14 02:00N 54°42' E 013°12'3 3.5 140 / 141032.8 0.7-4.1 5.7
2018-Jan-14 01:00N 54°42' E 013°18'3 3.5 130 / 121032.9 -0.0-4.8 5.8
2018-Jan-14 00:00N 54°42' E 013°12'3 3.5 140 / 171033.1 0.6-3.5 5.9
2018-Jan-13 23:00N 54°42' E 013°18'7 0.2 130 / 141033.5 -0.0-4.6 5.8
2018-Jan-12 15:00N 54°42' E 013°30'10 5.2 090 / 211032.4 3.3 1.3 5.2
2018-Jan-12 13:00N 54°42' E 013°48'0 0.0 090 / 211031.6 3.4 1.4 5.3
2018-Jan-12 12:00N 54°42' E 013°48'0 0.0 090 / 211031.6 3.8 1.5 5.4
2018-Jan-12 11:00N 54°42' E 013°48'7 6.9 090 / 231031.2 3.5 1.2 5.0
2018-Jan-12 10:00N 54°36' E 013°42'7 6.9 090 / 211030.9 3.7 1.4 5.0
2018-Jan-12 09:00N 54°30' E 013°36'0 0.0 110 / 171030.4 3.6-0.7 4.1
2018-Jan-12 08:00N 54°30' E 013°36'0 0.0 100 / 171030.0 3.1-0.2 4.2
2018-Jan-12 07:00N 54°30' E 013°36'0 0.0 100 / 171029.4 2.5-0.3 4.2
2018-Jan-12 06:00N 54°30' E 013°36'0 0.0 080 / 171028.8 2.0-0.4 4.2
2018-Jan-12 05:00N 54°30' E 013°36'0 0.0 080 / 171028.2 1.5-0.4 4.2
2018-Jan-12 04:00N 54°30' E 013°36'0 0.0 080 / 161027.8 1.7 0.4 4.2
2018-Jan-12 03:00N 54°30' E 013°36'0 0.0 080 / 161027.3 1.9 0.6 4.2
2018-Jan-12 02:00N 54°30' E 013°36'0 0.0 100 / 141026.6 2.1 1.2 4.2
2018-Jan-12 01:00N 54°30' E 013°36'0 0.0 090 / 161026.2 2.1 1.3 4.3
2018-Jan-12 00:00N 54°30' E 013°36'   090 / 141025.8 2.1 1.1 4.3

Dump ship's entire track history